createdAt,value
2023-10-26T00:01:40.158Z,97.10
2023-10-26T00:04:06.844Z,97.43
2023-10-26T00:06:33.455Z,97.54
2023-10-26T00:09:00.004Z,97.42
2023-10-26T00:11:26.588Z,97.58
2023-10-26T00:13:53.131Z,97.78
2023-10-26T00:16:19.733Z,98.12
2023-10-26T00:18:46.525Z,98.02
2023-10-26T00:21:13.197Z,98.05
2023-10-26T00:23:40.072Z,98.18
2023-10-26T00:26:06.625Z,98.21
2023-10-26T00:28:33.391Z,98.14
2023-10-26T00:30:59.964Z,98.14
2023-10-26T00:33:26.522Z,98.25
2023-10-26T00:35:54.062Z,98.19
2023-10-26T00:38:20.687Z,98.02
2023-10-26T00:40:47.445Z,97.61
2023-10-26T00:43:23.960Z,97.74
2023-10-26T00:45:54.197Z,97.94
2023-10-26T00:48:21.767Z,98.18
2023-10-26T00:50:51.329Z,97.86
2023-10-26T00:53:19.275Z,97.96
2023-10-26T00:55:47.334Z,97.99
2023-10-26T00:58:15.049Z,98.05
2023-10-26T01:00:41.988Z,98.21
2023-10-26T01:03:09.039Z,98.56
2023-10-26T01:05:35.740Z,98.84
2023-10-26T01:08:02.309Z,99.04
2023-10-26T01:10:29.169Z,98.69
2023-10-26T01:12:55.929Z,98.62
2023-10-26T01:15:24.497Z,98.62
2023-10-26T01:17:51.290Z,98.23
2023-10-26T01:20:18.822Z,98.28
2023-10-26T01:22:45.475Z,98.46
2023-10-26T01:25:12.086Z,98.55
2023-10-26T01:27:39.873Z,98.61
2023-10-26T01:30:07.654Z,98.67
2023-10-26T01:32:34.157Z,98.66
2023-10-26T01:35:00.740Z,98.70
2023-10-26T01:37:27.225Z,98.73
2023-10-26T01:39:53.900Z,98.80
2023-10-26T01:42:20.471Z,98.88
2023-10-26T01:44:47.033Z,98.89
2023-10-26T01:47:14.600Z,98.63
2023-10-26T01:49:41.203Z,98.57
2023-10-26T01:52:08.196Z,98.63
2023-10-26T01:54:34.769Z,98.57
2023-10-26T01:57:01.498Z,98.81
2023-10-26T01:59:28.200Z,98.73
2023-10-26T02:01:54.856Z,98.85
2023-10-26T02:04:21.499Z,98.80
2023-10-26T02:06:48.260Z,98.39
2023-10-26T02:09:15.078Z,98.39
2023-10-26T02:11:41.622Z,98.20
2023-10-26T02:14:08.213Z,98.30
2023-10-26T02:16:34.781Z,98.64
2023-10-26T02:19:01.643Z,98.64
2023-10-26T02:21:28.494Z,98.64
2023-10-26T02:23:55.144Z,98.42
2023-10-26T02:26:21.738Z,98.25
2023-10-26T02:28:48.386Z,98.16
2023-10-26T02:31:14.944Z,98.25
2023-10-26T02:33:41.611Z,98.36
2023-10-26T02:36:09.310Z,98.22
2023-10-26T02:38:35.875Z,98.09
2023-10-26T02:41:05.715Z,98.21
2023-10-26T02:43:32.632Z,98.17
2023-10-26T02:46:03.121Z,98.14
2023-10-26T02:48:29.703Z,97.65
2023-10-26T02:50:56.772Z,97.35
2023-10-26T02:53:23.739Z,97.96
2023-10-26T02:55:50.310Z,98.37
2023-10-26T02:58:16.870Z,98.45
2023-10-26T03:00:43.609Z,98.10
2023-10-26T03:03:10.348Z,98.63
2023-10-26T03:05:39.314Z,98.90
2023-10-26T03:08:06.493Z,98.95
2023-10-26T03:10:33.210Z,98.97
2023-10-26T03:12:59.836Z,99.00
2023-10-26T03:15:26.520Z,99.02
2023-10-26T03:17:53.509Z,99.01
2023-10-26T03:20:20.164Z,99.20
2023-10-26T03:22:46.753Z,98.68
2023-10-26T03:25:15.451Z,98.89
2023-10-26T03:30:22.923Z,98.73
2023-10-26T03:32:49.463Z,98.69
2023-10-26T03:35:16.161Z,98.75
2023-10-26T03:37:42.682Z,99.12
2023-10-26T03:40:09.485Z,98.91
2023-10-26T03:42:36.301Z,98.93
2023-10-26T03:45:02.785Z,98.52
2023-10-26T03:47:29.350Z,99.09
2023-10-26T03:49:56.760Z,99.22
2023-10-26T03:52:23.504Z,99.83
2023-10-26T03:54:50.935Z,100.00
2023-10-26T03:57:17.585Z,100.00
2023-10-26T03:59:44.213Z,100.00
2023-10-26T04:02:12.438Z,100.00
2023-10-26T04:04:39.531Z,100.00
2023-10-26T04:07:06.924Z,100.00
2023-10-26T04:09:33.575Z,100.00
2023-10-26T04:12:00.435Z,100.00
2023-10-26T04:14:27.631Z,100.00
2023-10-26T04:16:54.230Z,100.00
2023-10-26T04:19:20.805Z,100.00
2023-10-26T04:21:47.288Z,100.00
2023-10-26T04:24:13.922Z,100.00
2023-10-26T04:26:40.396Z,100.00
2023-10-26T04:29:08.171Z,100.00
2023-10-26T04:31:35.332Z,100.00
2023-10-26T04:34:01.930Z,100.00
2023-10-26T04:36:28.833Z,100.00
2023-10-26T04:38:55.628Z,100.00
2023-10-26T04:41:22.762Z,100.00
2023-10-26T04:43:49.634Z,100.00
2023-10-26T04:46:16.364Z,100.00
2023-10-26T04:48:43.002Z,100.00
2023-10-26T04:51:10.012Z,100.00
2023-10-26T04:53:36.737Z,100.00
2023-10-26T04:56:04.128Z,99.61
2023-10-26T04:58:30.746Z,99.17
2023-10-26T05:00:57.607Z,99.10
2023-10-26T05:03:24.237Z,98.84
2023-10-26T05:05:50.868Z,99.31
2023-10-26T05:08:17.447Z,99.54
2023-10-26T05:10:44.015Z,99.48
2023-10-26T05:13:11.849Z,99.91
2023-10-26T05:15:38.606Z,99.81
2023-10-26T05:18:05.394Z,99.90
2023-10-26T05:20:34.245Z,99.76
2023-10-26T05:23:01.257Z,100.00
2023-10-26T05:25:27.796Z,99.74
2023-10-26T05:27:54.558Z,99.51
2023-10-26T05:30:22.399Z,99.99
2023-10-26T05:32:49.116Z,99.86
2023-10-26T05:35:18.466Z,99.49
2023-10-26T05:37:44.944Z,99.43
2023-10-26T05:40:11.827Z,99.47
2023-10-26T05:42:41.156Z,99.75
2023-10-26T05:45:08.292Z,99.67
2023-10-26T05:47:34.944Z,99.65
2023-10-26T05:50:01.593Z,99.79
2023-10-26T05:52:28.275Z,100.00
2023-10-26T05:54:55.494Z,100.00
2023-10-26T05:57:22.090Z,100.00
2023-10-26T05:59:49.077Z,100.00
2023-10-26T06:02:15.649Z,100.00
2023-10-26T06:04:42.420Z,100.00
2023-10-26T06:07:09.251Z,100.00
2023-10-26T06:09:38.504Z,100.00
2023-10-26T06:12:05.190Z,99.83
2023-10-26T06:14:32.021Z,99.88
2023-10-26T06:16:58.656Z,100.00
2023-10-26T06:19:25.191Z,99.63
2023-10-26T06:21:51.807Z,99.28
2023-10-26T06:24:18.604Z,99.57
2023-10-26T06:26:45.121Z,99.24
2023-10-26T06:29:11.649Z,98.68
2023-10-26T06:31:38.259Z,98.64
2023-10-26T06:34:04.782Z,98.73
2023-10-26T06:36:31.449Z,98.43
2023-10-26T06:38:58.218Z,98.70
2023-10-26T06:41:24.873Z,98.75
2023-10-26T06:43:52.761Z,99.44
2023-10-26T06:46:19.386Z,99.43
2023-10-26T06:48:46.115Z,99.38
2023-10-26T06:51:12.920Z,99.23
2023-10-26T06:53:39.450Z,98.75
2023-10-26T06:56:12.672Z,98.61
2023-10-26T06:58:41.047Z,98.78
2023-10-26T07:01:19.291Z,98.54
2023-10-26T07:03:47.525Z,98.23
2023-10-26T07:06:14.937Z,98.11
2023-10-26T07:08:41.622Z,98.00
2023-10-26T07:11:08.276Z,98.46
2023-10-26T07:13:35.499Z,98.28
2023-10-26T07:16:03.246Z,98.21
2023-10-26T07:18:30.227Z,98.27
2023-10-26T07:20:58.144Z,97.31
2023-10-26T07:23:24.583Z,97.11
2023-10-26T07:25:51.336Z,97.28
2023-10-26T07:28:18.213Z,96.71
2023-10-26T07:30:45.147Z,96.07
2023-10-26T07:33:11.911Z,95.91
2023-10-26T07:35:44.666Z,96.03
2023-10-26T07:38:35.578Z,96.15
2023-10-26T07:41:01.603Z,95.63
2023-10-26T07:43:29.129Z,94.79
2023-10-26T07:45:58.418Z,95.36
2023-10-26T07:48:25.076Z,94.60
2023-10-26T07:50:52.440Z,94.22
2023-10-26T07:53:18.991Z,94.32
2023-10-26T07:55:47.891Z,94.70
2023-10-26T07:58:16.716Z,94.67
2023-10-26T08:00:43.375Z,94.14
2023-10-26T08:03:10.187Z,93.79
2023-10-26T08:05:36.695Z,93.44
2023-10-26T08:08:04.171Z,92.47
2023-10-26T08:10:36.631Z,90.68
2023-10-26T08:13:04.564Z,90.62
2023-10-26T08:16:11.064Z,89.96
2023-10-26T08:18:17.851Z,89.26
2023-10-26T08:20:50.512Z,89.05
2023-10-26T08:23:17.124Z,88.99
2023-10-26T08:25:43.697Z,88.57
2023-10-26T08:28:10.318Z,100.00
2023-10-26T08:30:43.494Z,86.34
2023-10-26T08:33:13.276Z,86.43
2023-10-26T08:35:42.705Z,86.45
2023-10-26T08:38:09.302Z,86.35
2023-10-26T08:40:36.152Z,85.95
2023-10-26T08:43:06.404Z,85.90
2023-10-26T08:45:33.007Z,85.75
2023-10-26T08:47:59.744Z,85.37
2023-10-26T08:50:26.493Z,85.24
2023-10-26T08:52:53.321Z,85.21
2023-10-26T08:55:20.084Z,84.38
2023-10-26T08:57:53.520Z,84.75
2023-10-26T09:00:20.983Z,84.90
2023-10-26T09:02:49.504Z,85.09
2023-10-26T09:05:16.556Z,84.28
2023-10-26T09:07:44.865Z,83.61
2023-10-26T09:10:12.110Z,82.99
2023-10-26T09:12:38.731Z,100.00
2023-10-26T09:15:07.411Z,82.28
2023-10-26T09:17:35.067Z,81.09
2023-10-26T09:20:22.717Z,80.21
2023-10-26T09:22:49.677Z,80.57
2023-10-26T09:25:16.861Z,81.48
2023-10-26T09:27:44.406Z,79.39
2023-10-26T09:30:27.314Z,79.68
2023-10-26T09:32:54.103Z,78.95
2023-10-26T09:35:27.744Z,78.96
2023-10-26T09:37:54.644Z,79.80
2023-10-26T09:40:22.158Z,78.00
2023-10-26T09:42:52.061Z,75.98
2023-10-26T09:45:20.625Z,75.98
2023-10-26T09:47:48.392Z,100.00
2023-10-26T09:50:15.386Z,75.98
2023-10-26T09:52:45.485Z,100.00
2023-10-26T09:55:12.673Z,100.00
2023-10-26T09:57:59.568Z,100.00
2023-10-26T10:00:32.016Z,100.00
2023-10-26T10:03:17.748Z,70.61
2023-10-26T10:05:45.221Z,72.79
2023-10-26T10:08:12.202Z,71.28
2023-10-26T10:10:58.653Z,74.08
2023-10-26T10:13:38.332Z,69.11
2023-10-26T10:16:05.035Z,71.93
2023-10-26T10:18:31.662Z,70.56
2023-10-26T10:20:58.400Z,70.91
2023-10-26T10:23:29.332Z,69.82
2023-10-26T10:26:00.530Z,67.32
2023-10-26T10:28:42.209Z,64.88
2023-10-26T10:31:12.990Z,64.84
2023-10-26T10:33:40.610Z,63.47
2023-10-26T10:36:09.259Z,63.17
2023-10-26T10:38:36.445Z,62.47
2023-10-26T10:41:08.634Z,62.76
2023-10-26T10:43:37.083Z,62.70
2023-10-26T10:46:13.755Z,62.46
2023-10-26T10:48:55.552Z,62.64
2023-10-26T10:51:22.169Z,62.42
2023-10-26T10:53:51.762Z,62.07
2023-10-26T10:56:18.444Z,62.89
2023-10-26T10:58:45.196Z,62.97
2023-10-26T11:01:18.147Z,63.17
2023-10-26T11:03:44.871Z,63.00
2023-10-26T11:06:15.965Z,62.98
2023-10-26T11:08:51.800Z,62.82
2023-10-26T11:11:27.702Z,62.76
2023-10-26T11:14:09.895Z,63.07
2023-10-26T11:16:37.504Z,62.75
2023-10-26T11:19:04.496Z,63.31
2023-10-26T11:21:31.121Z,64.17
2023-10-26T11:23:58.925Z,63.01
2023-10-26T11:26:25.457Z,62.91
2023-10-26T11:28:52.047Z,62.58
2023-10-26T11:31:40.446Z,62.05
2023-10-26T11:34:08.362Z,61.10
2023-10-26T11:36:36.111Z,60.93
2023-10-26T11:39:03.780Z,60.59
2023-10-26T11:41:30.726Z,60.22
2023-10-26T11:43:57.870Z,60.65
2023-10-26T11:46:37.200Z,60.61
2023-10-26T11:49:04.950Z,59.98
2023-10-26T11:51:34.939Z,60.36
2023-10-26T11:54:12.410Z,60.14
2023-10-26T11:56:41.253Z,59.68
2023-10-26T11:59:07.862Z,59.47
2023-10-26T12:01:34.746Z,59.07
2023-10-26T12:04:01.613Z,58.67
2023-10-26T12:06:29.840Z,57.62
2023-10-26T12:08:58.492Z,56.12
2023-10-26T12:11:25.708Z,56.32
2023-10-26T12:13:52.318Z,55.63
2023-10-26T12:16:18.949Z,54.87
2023-10-26T12:18:45.682Z,54.69
2023-10-26T12:21:12.277Z,53.94
2023-10-26T12:23:38.876Z,53.25
2023-10-26T12:26:05.483Z,52.93
2023-10-26T12:28:32.070Z,52.72
2023-10-26T12:30:58.747Z,53.19
2023-10-26T12:33:25.565Z,53.52
2023-10-26T12:35:52.234Z,53.49
2023-10-26T12:38:20.963Z,54.15
2023-10-26T12:40:48.175Z,54.39
2023-10-26T12:43:14.886Z,54.85
2023-10-26T12:45:41.601Z,54.49
2023-10-26T12:48:08.599Z,54.93
2023-10-26T12:50:35.203Z,55.56
2023-10-26T12:53:01.879Z,55.61
2023-10-26T12:55:30.884Z,56.20
2023-10-26T12:57:59.204Z,56.64
2023-10-26T13:00:25.914Z,56.56
2023-10-26T13:02:52.487Z,57.09
2023-10-26T13:05:19.212Z,57.16
2023-10-26T13:07:45.948Z,57.91
2023-10-26T13:10:12.513Z,58.45
2023-10-26T13:12:40.923Z,58.51
2023-10-26T13:15:07.851Z,58.58
2023-10-26T13:17:35.000Z,58.65
2023-10-26T13:20:02.101Z,58.46
2023-10-26T13:22:28.756Z,58.31
2023-10-26T13:24:55.469Z,59.00
2023-10-26T13:27:22.351Z,59.10
2023-10-26T13:29:49.650Z,59.26
2023-10-26T13:32:16.530Z,59.35
2023-10-26T13:34:43.279Z,59.54
2023-10-26T13:37:10.022Z,60.25
2023-10-26T13:39:36.790Z,60.59
2023-10-26T13:42:03.605Z,61.09
2023-10-26T13:44:30.185Z,61.77
2023-10-26T13:46:56.789Z,61.97
2023-10-26T13:49:23.356Z,100.00
2023-10-26T13:51:51.567Z,100.00
2023-10-26T13:54:18.473Z,100.00
2023-10-26T13:56:45.239Z,100.00
2023-10-26T13:59:11.902Z,100.00
2023-10-26T14:01:47.699Z,100.00
2023-10-26T14:04:15.598Z,100.00
2023-10-26T14:06:42.173Z,100.00
2023-10-26T14:09:09.929Z,100.00
2023-10-26T14:11:36.557Z,100.00
2023-10-26T14:14:03.184Z,100.00
2023-10-26T14:16:31.889Z,100.00
2023-10-26T14:19:00.499Z,100.00
2023-10-26T14:21:27.716Z,100.00
2023-10-26T14:23:54.315Z,100.00
2023-10-26T14:26:20.911Z,100.00
2023-10-26T14:28:48.902Z,100.00
2023-10-26T14:31:17.644Z,100.00
2023-10-26T14:33:46.657Z,100.00
2023-10-26T14:36:13.333Z,100.00
2023-10-26T14:38:39.999Z,100.00
2023-10-26T14:41:06.581Z,100.00
2023-10-26T14:43:33.169Z,100.00
2023-10-26T14:45:59.796Z,100.00
2023-10-26T14:48:26.443Z,100.00
2023-10-26T14:51:00.021Z,100.00
2023-10-26T14:53:26.916Z,100.00
2023-10-26T14:55:53.830Z,100.00
2023-10-26T14:58:22.058Z,100.00
2023-10-26T15:00:51.435Z,100.00
2023-10-26T15:03:18.138Z,100.00
2023-10-26T15:05:44.772Z,100.00
2023-10-26T15:08:11.620Z,100.00
2023-10-26T15:10:38.713Z,100.00
2023-10-26T15:13:05.588Z,100.00
2023-10-26T15:15:32.630Z,100.00
2023-10-26T15:18:00.196Z,100.00
2023-10-26T15:20:26.883Z,100.00
2023-10-26T15:22:53.415Z,100.00
2023-10-26T15:25:20.113Z,100.00
2023-10-26T15:27:46.706Z,100.00
2023-10-26T15:30:13.668Z,100.00
2023-10-26T15:32:40.309Z,100.00
2023-10-26T15:35:07.042Z,100.00
2023-10-26T15:37:33.657Z,100.00
2023-10-26T15:40:00.341Z,100.00
2023-10-26T15:42:29.564Z,100.00
2023-10-26T15:44:56.283Z,100.00
2023-10-26T15:47:25.806Z,100.00
2023-10-26T15:49:52.898Z,100.00
2023-10-26T15:52:19.959Z,100.00
2023-10-26T15:54:46.681Z,100.00
2023-10-26T15:57:14.342Z,100.00
2023-10-26T15:59:40.910Z,100.00
2023-10-26T16:02:08.749Z,100.00
2023-10-26T16:04:35.478Z,100.00
2023-10-26T16:07:02.211Z,100.00
2023-10-26T16:09:34.162Z,100.00
2023-10-26T16:12:02.653Z,100.00
2023-10-26T16:14:29.332Z,100.00
2023-10-26T16:16:56.007Z,100.00
2023-10-26T16:19:23.703Z,100.00
2023-10-26T16:21:50.325Z,100.00
2023-10-26T16:24:19.266Z,100.00
2023-10-26T16:26:45.915Z,100.00
2023-10-26T16:29:14.385Z,100.00
2023-10-26T16:31:40.985Z,100.00
2023-10-26T16:34:10.315Z,100.00
2023-10-26T16:36:36.873Z,100.00
2023-10-26T16:39:04.072Z,100.00
2023-10-26T16:41:33.652Z,100.00
2023-10-26T16:44:01.141Z,100.00
2023-10-26T16:46:27.761Z,100.00
2023-10-26T16:48:54.455Z,100.00
2023-10-26T16:51:21.246Z,100.00
2023-10-26T16:53:53.380Z,100.00
2023-10-26T16:56:19.895Z,100.00
2023-10-26T16:58:46.680Z,100.00
2023-10-26T17:01:13.569Z,100.00
2023-10-26T17:03:40.250Z,100.00
2023-10-26T17:06:09.823Z,100.00
2023-10-26T17:08:36.982Z,100.00
2023-10-26T17:11:04.691Z,100.00
2023-10-26T17:13:31.424Z,100.00
2023-10-26T17:15:58.260Z,100.00
2023-10-26T17:18:26.997Z,100.00
2023-10-26T17:20:57.014Z,100.00
2023-10-26T17:23:23.671Z,100.00
2023-10-26T17:25:50.236Z,100.00
2023-10-26T17:28:16.980Z,100.00
2023-10-26T17:30:43.532Z,100.00
2023-10-26T17:33:14.462Z,100.00
2023-10-26T17:35:49.124Z,100.00
2023-10-26T17:38:16.153Z,100.00
2023-10-26T17:40:45.502Z,100.00
2023-10-26T17:43:16.401Z,100.00
2023-10-26T17:45:43.270Z,100.00
2023-10-26T17:48:10.995Z,100.00
2023-10-26T17:50:39.769Z,100.00
2023-10-26T17:53:06.408Z,100.00
2023-10-26T17:55:37.344Z,100.00
2023-10-26T17:58:03.862Z,100.00
2023-10-26T18:00:31.028Z,100.00
2023-10-26T18:02:59.889Z,100.00
2023-10-26T18:05:27.578Z,100.00
2023-10-26T18:07:54.571Z,100.00
2023-10-26T18:10:21.670Z,100.00
2023-10-26T18:12:48.529Z,100.00
2023-10-26T18:15:15.201Z,100.00
2023-10-26T18:17:41.728Z,100.00
2023-10-26T18:20:10.270Z,100.00
2023-10-26T18:22:36.842Z,100.00
2023-10-26T18:25:03.750Z,100.00
2023-10-26T18:27:33.217Z,100.00
2023-10-26T18:29:59.944Z,100.00
2023-10-26T18:32:26.510Z,100.00
2023-10-26T18:34:53.032Z,100.00
2023-10-26T18:37:26.282Z,100.00
2023-10-26T18:39:55.014Z,100.00
2023-10-26T18:42:22.553Z,100.00
2023-10-26T18:44:50.116Z,100.00
2023-10-26T18:47:16.713Z,100.00
2023-10-26T18:49:43.406Z,100.00
2023-10-26T18:52:10.339Z,100.00
2023-10-26T18:54:36.915Z,100.00
2023-10-26T18:57:04.685Z,100.00
2023-10-26T18:59:31.597Z,100.00
2023-10-26T19:01:59.923Z,100.00
2023-10-26T19:04:26.499Z,100.00
2023-10-26T19:06:53.599Z,100.00
2023-10-26T19:09:20.147Z,100.00
2023-10-26T19:11:46.647Z,100.00
2023-10-26T19:14:13.273Z,100.00
2023-10-26T19:16:42.453Z,100.00
2023-10-26T19:19:12.048Z,100.00
2023-10-26T19:21:45.204Z,100.00
2023-10-26T19:24:11.765Z,100.00
2023-10-26T19:26:38.365Z,100.00
2023-10-26T19:29:05.085Z,100.00
2023-10-26T19:31:37.466Z,100.00
2023-10-26T19:34:04.222Z,100.00
2023-10-26T19:36:31.178Z,100.00
2023-10-26T19:38:57.800Z,100.00
2023-10-26T19:41:24.359Z,100.00
2023-10-26T19:43:50.894Z,100.00
2023-10-26T19:46:17.569Z,100.00
2023-10-26T19:48:44.172Z,100.00
2023-10-26T19:51:13.798Z,100.00
2023-10-26T19:53:40.510Z,100.00
2023-10-26T19:56:07.578Z,100.00
2023-10-26T19:58:34.102Z,100.00
2023-10-26T20:01:00.869Z,100.00
2023-10-26T20:03:27.506Z,100.00
2023-10-26T20:05:54.063Z,100.00
2023-10-26T20:08:20.651Z,100.00
2023-10-26T20:10:47.515Z,100.00
2023-10-26T20:13:14.081Z,100.00
2023-10-26T20:15:40.769Z,100.00
2023-10-26T20:18:11.735Z,100.00
2023-10-26T20:20:38.654Z,100.00
2023-10-26T20:23:07.070Z,100.00
2023-10-26T20:25:33.680Z,100.00
2023-10-26T20:28:00.318Z,100.00
2023-10-26T20:30:27.328Z,100.00
2023-10-26T20:32:54.067Z,100.00
2023-10-26T20:35:20.656Z,100.00
2023-10-26T20:37:47.232Z,100.00
2023-10-26T20:40:14.000Z,100.00
2023-10-26T20:42:44.241Z,100.00
2023-10-26T20:45:12.089Z,100.00
2023-10-26T20:47:38.949Z,100.00
2023-10-26T20:50:05.934Z,100.00
2023-10-26T20:52:32.590Z,100.00
2023-10-26T20:54:59.161Z,100.00
2023-10-26T20:57:25.723Z,100.00
2023-10-26T20:59:52.312Z,100.00
2023-10-26T21:02:18.949Z,100.00
2023-10-26T21:04:46.039Z,100.00
2023-10-26T21:07:12.732Z,100.00
2023-10-26T21:09:39.310Z,100.00
2023-10-26T21:12:06.092Z,100.00
2023-10-26T21:14:32.946Z,100.00
2023-10-26T21:17:00.305Z,100.00
2023-10-26T21:19:27.045Z,100.00
2023-10-26T21:21:55.435Z,100.00
2023-10-26T21:24:22.073Z,100.00
2023-10-26T21:26:48.609Z,100.00
2023-10-26T21:29:15.223Z,100.00
2023-10-26T21:31:41.843Z,100.00
2023-10-26T21:34:08.547Z,100.00
2023-10-26T21:36:35.236Z,100.00
2023-10-26T21:39:01.742Z,100.00
2023-10-26T21:41:28.758Z,100.00
2023-10-26T21:43:55.313Z,100.00
2023-10-26T21:46:22.090Z,100.00
2023-10-26T21:48:48.665Z,100.00
2023-10-26T21:51:15.339Z,100.00
2023-10-26T21:53:41.996Z,100.00
2023-10-26T21:56:08.665Z,100.00
2023-10-26T21:58:35.131Z,100.00
2023-10-26T22:01:02.982Z,100.00
2023-10-26T22:03:29.821Z,100.00
2023-10-26T22:05:57.003Z,100.00
2023-10-26T22:08:23.505Z,100.00
2023-10-26T22:10:50.014Z,100.00
2023-10-26T22:13:16.679Z,100.00
2023-10-26T22:15:43.415Z,100.00
2023-10-26T22:18:10.122Z,100.00
2023-10-26T22:20:37.591Z,100.00
2023-10-26T22:23:07.409Z,100.00
2023-10-26T22:25:34.279Z,100.00
2023-10-26T22:28:00.915Z,100.00
2023-10-26T22:30:27.777Z,100.00
2023-10-26T22:32:54.467Z,100.00
2023-10-26T22:35:21.056Z,100.00
2023-10-26T22:37:47.675Z,100.00
2023-10-26T22:40:14.272Z,100.00
2023-10-26T22:42:40.820Z,100.00
2023-10-26T22:45:07.805Z,100.00
2023-10-26T22:47:36.661Z,100.00
2023-10-26T22:50:03.443Z,100.00
2023-10-26T22:52:30.310Z,100.00
2023-10-26T22:54:59.744Z,100.00
2023-10-26T22:57:27.392Z,100.00
2023-10-26T22:59:56.042Z,100.00
2023-10-26T23:02:22.950Z,100.00
2023-10-26T23:04:51.503Z,100.00
2023-10-26T23:07:18.083Z,100.00
2023-10-26T23:09:44.770Z,100.00
2023-10-26T23:12:11.500Z,100.00
2023-10-26T23:14:38.146Z,100.00
2023-10-26T23:17:04.744Z,100.00
2023-10-26T23:19:31.295Z,100.00
2023-10-26T23:21:57.976Z,100.00
2023-10-26T23:24:27.753Z,100.00
2023-10-26T23:26:57.446Z,100.00
2023-10-26T23:29:24.340Z,100.00
2023-10-26T23:31:50.911Z,100.00
2023-10-26T23:34:17.589Z,100.00
2023-10-26T23:36:44.331Z,100.00
2023-10-26T23:39:10.970Z,100.00
2023-10-26T23:41:37.520Z,100.00
2023-10-26T23:44:04.513Z,100.00
2023-10-26T23:46:31.116Z,100.00
2023-10-26T23:48:57.711Z,100.00
2023-10-26T23:51:24.324Z,100.00
2023-10-26T23:53:50.989Z,100.00
2023-10-26T23:56:17.547Z,100.00
2023-10-26T23:58:44.086Z,100.00
